Flight Track Log - Related Links

Times and Time Zones

All times are in EDT time to prevent confusion due to time zone crossing. See the UAL1036 flight status page for this flight to view local times or setup timezone preferences in your user account.

Time Position Orientation Groundspeed Altitude Reporting Facility
EDT Latitude Longitude Course Direction KTS MPH feet Rate Location/Type
Sun 02:53:00 AM 0.2011 -78.6510 335° Northwest  Level FlightAware Approximate
Sun 02:54:00 AM 0.2867 -78.6917 335° Northwest  Level FlightAware Approximate
Sun 02:55:00 AM 0.3722 -78.7324 335° Northwest  Level FlightAware Approximate
Sun 02:56:00 AM 0.4578 -78.7731 335° Northwest  Level FlightAware Approximate
Sun 02:57:00 AM 0.5433 -78.8138 335° Northwest  Level FlightAware Approximate
Sun 02:58:00 AM 0.6289 -78.8545 335° Northwest  Level FlightAware Approximate
Sun 02:59:00 AM 0.7145 -78.8952 335° Northwest  Level FlightAware Approximate
Sun 03:00:00 AM 0.8000 -78.9359 335° Northwest  Level FlightAware Approximate
Sun 03:01:00 AM 0.8856 -78.9766 335° Northwest  Level FlightAware Approximate
Sun 03:02:00 AM 0.9711 -79.0173 335° Northwest  Level FlightAware Approximate
Sun 03:03:00 AM 1.0567 -79.0581 335° Northwest  Level FlightAware Approximate
Sun 03:04:00 AM 1.1423 -79.0988 335° Northwest  Level FlightAware Approximate
Sun 03:05:00 AM 1.2278 -79.1395 335° Northwest  Level FlightAware Approximate
Sun 03:06:00 AM 1.3134 -79.1802 335° Northwest  Level FlightAware Approximate
Sun 03:07:00 AM 1.3989 -79.2209 335° Northwest  Level FlightAware Approximate
Sun 03:08:00 AM 1.4845 -79.2617 335° Northwest  Level FlightAware Approximate
Sun 03:09:00 AM 1.5700 -79.3024 335° Northwest  Level FlightAware Approximate
Sun 03:10:00 AM 1.6296 -79.3337 330° Northwest  Level FlightAware Approximate
Sun 03:11:00 AM 1.7118 -79.3809 330° Northwest  Level FlightAware Approximate
Sun 03:12:00 AM 1.7939 -79.4280 330° Northwest  Level FlightAware Approximate
Sun 03:13:00 AM 1.8761 -79.4752 330° Northwest  Level FlightAware Approximate
Sun 03:14:00 AM 1.9583 -79.5224 330° Northwest  Level FlightAware Approximate
Sun 03:15:00 AM 2.0405 -79.5696 330° Northwest  Level FlightAware Approximate
Sun 03:16:00 AM 2.1226 -79.6168 330° Northwest  Level FlightAware Approximate
Sun 03:17:00 AM 2.2048 -79.6640 330° Northwest  Level FlightAware Approximate
Sun 03:18:00 AM 2.2870 -79.7113 330° Northwest  Level FlightAware Approximate
Sun 03:19:00 AM 2.3691 -79.7585 330° Northwest  Level FlightAware Approximate
Sun 03:20:00 AM 2.4516 -79.8051 331° Northwest  Level FlightAware Approximate
Sun 03:21:00 AM 2.5342 -79.8516 331° Northwest  Level FlightAware Approximate
Sun 03:22:00 AM 2.6168 -79.8981 331° Northwest  Level FlightAware Approximate
Sun 03:23:00 AM 2.6994 -79.9446 331° Northwest  Level FlightAware Approximate
Sun 03:24:00 AM 2.8033 -80.0032 331° Northwest  Level FlightAware Approximate
Sun 03:25:00 AM 2.9072 -80.0617 331° Northwest  Level FlightAware Approximate
Sun 03:26:00 AM 3.0111 -80.1203 331° Northwest  Level FlightAware Approximate
Sun 03:27:00 AM 3.1151 -80.1788 331° Northwest  Level FlightAware Approximate
Sun 03:28:00 AM 3.2190 -80.2374 331° Northwest  Level FlightAware Approximate
Sun 03:29:00 AM 3.3229 -80.2960 331° Northwest  Level FlightAware Approximate
Sun 03:30:00 AM 3.4268 -80.3547 331° Northwest  Level FlightAware Approximate
Sun 03:31:00 AM 3.5307 -80.4133 331° Northwest  Level FlightAware Approximate
Sun 03:32:00 AM 3.6346 -80.4719 331° Northwest  Level FlightAware Approximate
Sun 03:33:00 AM 3.7385 -80.5306 331° Northwest  Level FlightAware Approximate
Sun 03:34:00 AM 3.8424 -80.5892 331° Northwest  Level FlightAware Approximate
Sun 03:35:00 AM 3.9463 -80.6479 331° Northwest  Level FlightAware Approximate
Sun 03:36:00 AM 4.0496 -80.7077 330° Northwest  Level FlightAware Approximate
Sun 03:37:00 AM 4.1528 -80.7675 330° Northwest  Level FlightAware Approximate
Sun 03:38:00 AM 4.2561 -80.8273 330° Northwest  Level FlightAware Approximate
Sun 03:39:00 AM 4.3593 -80.8872 330° Northwest  Level FlightAware Approximate
Sun 03:40:00 AM 4.4625 -80.9471 330° Northwest  Level FlightAware Approximate
Sun 03:41:00 AM 4.5658 -81.0070 330° Northwest  Level FlightAware Approximate
Sun 03:42:00 AM 4.6690 -81.0669 330° Northwest  Level FlightAware Approximate
Sun 03:43:00 AM 4.7722 -81.1268 330° Northwest  Level FlightAware Approximate
Sun 03:44:00 AM 4.8754 -81.1868 330° Northwest  Level FlightAware Approximate
Sun 03:45:00 AM 4.9786 -81.2467 330° Northwest  Level FlightAware Approximate
Sun 03:46:00 AM 5.0818 -81.3067 330° Northwest  Level FlightAware Approximate
Sun 03:47:00 AM 5.1850 -81.3667 330° Northwest  Level FlightAware Approximate
Sun 03:48:00 AM 5.2882 -81.4267 330° Northwest  Level FlightAware Approximate
Sun 03:49:00 AM 5.3914 -81.4868 330° Northwest  Level FlightAware Approximate
Sun 03:50:00 AM 5.4946 -81.5468 330° Northwest  Level FlightAware Approximate
Sun 03:51:00 AM 5.5982 -81.6061 330° Northwest  Level FlightAware Approximate
Sun 03:52:00 AM 5.7018 -81.6654 330° Northwest  Level FlightAware Approximate
Sun 03:53:00 AM 5.8055 -81.7247 330° Northwest  Level FlightAware Approximate
Sun 03:54:00 AM 5.9091 -81.7840 330° Northwest  Level FlightAware Approximate
Sun 03:55:00 AM 6.0127 -81.8433 330° Northwest  Level FlightAware Approximate
Sun 03:56:00 AM 6.1164 -81.9027 330° Northwest  Level FlightAware Approximate
Sun 03:57:00 AM 6.2200 -81.9620 330° Northwest  Level FlightAware Approximate
Sun 03:58:00 AM 6.3236 -82.0214 330° Northwest  Level FlightAware Approximate
Sun 03:59:00 AM 6.4272 -82.0809 330° Northwest  Level FlightAware Approximate
Sun 04:00:00 AM 6.5308 -82.1403 330° Northwest  Level FlightAware Approximate
Sun 04:01:00 AM 6.6344 -82.1998 330° Northwest  Level FlightAware Approximate
Sun 04:02:00 AM 6.7379 -82.2593 330° Northwest  Level FlightAware Approximate
Sun 04:03:00 AM 6.8415 -82.3188 330° Northwest  Level FlightAware Approximate
Sun 04:04:00 AM 6.9451 -82.3783 330° Northwest  Level FlightAware Approximate
Sun 04:05:00 AM 7.0486 -82.4379 330° Northwest  Level FlightAware Approximate
Sun 04:06:00 AM 7.1522 -82.4975 330° Northwest  Level FlightAware Approximate
Sun 04:07:00 AM 7.2557 -82.5572 330° Northwest  Level FlightAware Approximate
Sun 04:08:00 AM 7.3593 -82.6168 330° Northwest  Level FlightAware Approximate
Sun 04:09:00 AM 7.4628 -82.6765 330° Northwest  Level FlightAware Approximate
Sun 04:10:00 AM 7.5663 -82.7362 330° Northwest  Level FlightAware Approximate
Sun 04:11:00 AM 7.6698 -82.7959 330° Northwest  Level FlightAware Approximate
Sun 04:12:00 AM 7.7733 -82.8557 330° Northwest  Level FlightAware Approximate
Sun 04:13:00 AM 7.8769 -82.9155 330° Northwest  Level FlightAware Approximate
Sun 04:14:00 AM 7.9805 -82.9751 330° Northwest  Level FlightAware Approximate
Sun 04:15:00 AM 8.0840 -83.0348 330° Northwest  Level FlightAware Approximate
Sun 04:16:00 AM 8.1876 -83.0945 330° Northwest  Level FlightAware Approximate
Sun 04:17:00 AM 8.2912 -83.1543 330° Northwest  Level FlightAware Approximate
Sun 04:18:00 AM 8.3947 -83.2140 330° Northwest  Level FlightAware Approximate
Sun 04:19:00 AM 8.4983 -83.2738 330° Northwest  Level FlightAware Approximate
Sun 04:20:00 AM 8.6018 -83.3337 330° Northwest  Level FlightAware Approximate
Sun 04:21:00 AM 8.7053 -83.3935 330° Northwest  Level FlightAware Approximate
Sun 04:22:00 AM 8.8088 -83.4535 330° Northwest  Level FlightAware Approximate
Sun 04:23:00 AM 8.9123 -83.5134 330° Northwest  Level FlightAware Approximate
Sun 04:24:00 AM 9.0158 -83.5734 330° Northwest  Level FlightAware Approximate
Sun 04:25:00 AM 9.1193 -83.6334 330° Northwest  Level FlightAware Approximate
Sun 04:26:00 AM 9.2228 -83.6934 330° Northwest  Level FlightAware Approximate
Sun 04:27:00 AM 9.3263 -83.7535 330° Northwest  Level FlightAware Approximate
Sun 04:28:00 AM 9.4297 -83.8136 330° Northwest  Level FlightAware Approximate
Sun 04:29:00 AM 9.5331 -83.8738 330° Northwest  Level FlightAware Approximate
Sun 04:30:00 AM 9.6366 -83.9340 330° Northwest  Level FlightAware Approximate
Sun 04:31:00 AM 9.7400 -83.9942 330° Northwest  Level FlightAware Approximate
Sun 04:32:00 AM 9.8433 -84.0547 330° Northwest  Level FlightAware Approximate
Sun 04:33:00 AM 9.9465 -84.1153 330° Northwest  Level FlightAware Approximate
Sun 04:34:00 AM 10.0497 -84.1759 330° Northwest  Level FlightAware Approximate
Sun 04:35:00 AM 10.1529 -84.2366 330° Northwest  Level FlightAware Approximate
Sun 04:36:00 AM 10.2561 -84.2973 330° Northwest  Level FlightAware Approximate
Sun 04:37:00 AM 10.3593 -84.3581 330° Northwest  Level FlightAware Approximate
Sun 04:38:00 AM 10.4625 -84.4189 330° Northwest  Level FlightAware Approximate
Sun 04:39:00 AM 10.5657 -84.4797 330° Northwest  Level FlightAware Approximate
Sun 04:40:00 AM 10.6688 -84.5406 330° Northwest  Level FlightAware Approximate
Sun 04:41:00 AM 10.7719 -84.6015 330° Northwest  Level FlightAware Approximate
Sun 04:42:00 AM 10.8751 -84.6625 330° Northwest  Level FlightAware Approximate
Sun 04:43:00 AM 10.9782 -84.7235 330° Northwest  Level FlightAware Approximate
Sun 04:44:00 AM 11.0813 -84.7845 330° Northwest  Level FlightAware Approximate
Sun 04:45:00 AM 11.1844 -84.8456 330° Northwest  Level FlightAware Approximate
Sun 04:46:00 AM 11.2875 -84.9067 330° Northwest  Level FlightAware Approximate
Sun 04:47:00 AM 11.3905 -84.9679 330° Northwest  Level FlightAware Approximate
Sun 04:48:00 AM 11.4936 -85.0291 330° Northwest  Level FlightAware Approximate
Sun 04:49:00 AM 11.5967 -85.0904 330° Northwest  Level FlightAware Approximate
Sun 04:50:00 AM 11.6997 -85.1517 330° Northwest  Level FlightAware Approximate
Sun 04:51:00 AM 11.8031 -85.2132 330° Northwest  Level FlightAware Approximate
Sun 04:52:00 AM 11.9064 -85.2749 330° Northwest  Level FlightAware Approximate
Sun 04:53:00 AM 12.0098 -85.3365 330° Northwest  Level FlightAware Approximate
Sun 04:54:00 AM 12.1131 -85.3982 330° Northwest  Level FlightAware Approximate
Sun 04:55:00 AM 12.2164 -85.4600 330° Northwest  Level FlightAware Approximate
Sun 04:56:00 AM 12.3198 -85.5217 330° Northwest  Level FlightAware Approximate
Sun 04:57:00 AM 12.4232 -85.5834 330° Northwest  Level FlightAware Approximate
Sun 04:58:00 AM 12.5266 -85.6450 330° Northwest  Level FlightAware Approximate
Sun 04:59:00 AM 12.6300 -85.7068 330° Northwest  Level FlightAware Approximate
Sun 05:00:00 AM 12.7333 -85.7686 330° Northwest  Level FlightAware Approximate
Sun 05:01:00 AM 12.8367 -85.8304 330° Northwest  Level FlightAware Approximate
Sun 05:02:00 AM 12.9400 -85.8923 330° Northwest  Level FlightAware Approximate
Sun 05:03:00 AM 13.0434 -85.9542 330° Northwest  Level FlightAware Approximate
Sun 05:04:00 AM 13.1467 -86.0162 330° Northwest  Level FlightAware Approximate
Sun 05:05:00 AM 13.2500 -86.0783 330° Northwest  Level FlightAware Approximate
Sun 05:06:00 AM 13.3533 -86.1404 330° Northwest  Level FlightAware Approximate
Sun 05:07:00 AM 13.4565 -86.2025 330° Northwest  Level FlightAware Approximate
Sun 05:08:00 AM 13.5598 -86.2647 330° Northwest  Level FlightAware Approximate
Sun 05:09:00 AM 13.6630 -86.3270 330° Northwest  Level FlightAware Approximate
Sun 05:10:00 AM 13.7662 -86.3893 330° Northwest  Level FlightAware Approximate
Sun 05:11:00 AM 13.8694 -86.4517 330° Northwest  Level FlightAware Approximate
Sun 05:12:00 AM 13.9728 -86.5138 330° Northwest  Level FlightAware Approximate
Sun 05:13:00 AM 14.0761 -86.5761 330° Northwest  Level FlightAware Approximate
Sun 05:14:00 AM 14.1794 -86.6384 330° Northwest  Level FlightAware Approximate
Sun 05:15:00 AM 14.2827 -86.7007 330° Northwest  Level FlightAware Approximate
Sun 05:16:00 AM 14.3859 -86.7631 330° Northwest  Level FlightAware Approximate
Sun 05:17:00 AM 14.4892 -86.8256 330° Northwest  Level FlightAware Approximate
Sun 05:18:00 AM 14.5924 -86.8881 330° Northwest  Level FlightAware Approximate
Sun 05:19:00 AM 14.6956 -86.9507 330° Northwest  Level FlightAware Approximate
Sun 05:20:00 AM 14.7988 -87.0133 330° Northwest  Level FlightAware Approximate
Sun 05:21:00 AM 14.9020 -87.0760 330° Northwest  Level FlightAware Approximate
Sun 05:22:00 AM 15.0052 -87.1388 330° Northwest  Level FlightAware Approximate
Sun 05:23:00 AM 15.1083 -87.2016 330° Northwest  Level FlightAware Approximate
Sun 05:24:00 AM 15.2115 -87.2645 330° Northwest  Level FlightAware Approximate
Sun 05:25:00 AM 15.3146 -87.3274 330° Northwest  Level FlightAware Approximate
Sun 05:26:00 AM 15.4177 -87.3904 330° Northwest  Level FlightAware Approximate
Sun 05:27:00 AM 15.5201 -87.4546 329° Northwest  Level FlightAware Approximate
Sun 05:28:00 AM 15.6224 -87.5191 329° Northwest  Level FlightAware Approximate
Sun 05:29:00 AM 15.7247 -87.5836 329° Northwest  Level FlightAware Approximate
Sun 05:30:00 AM 15.8269 -87.6482 329° Northwest  Level FlightAware Approximate
Sun 05:31:00 AM 15.9291 -87.7129 329° Northwest  Level FlightAware Approximate
Sun 05:32:00 AM 16.0313 -87.7776 329° Northwest  Level FlightAware Approximate
Sun 05:33:00 AM 16.1344 -87.8409 330° Northwest  Level FlightAware Approximate
Sun 05:34:00 AM 16.2379 -87.9034 330° Northwest  Level FlightAware Approximate
Sun 05:35:00 AM 16.3414 -87.9659 330° Northwest  Level FlightAware Approximate
Sun 05:36:00 AM 16.4449 -88.0286 330° Northwest  Level FlightAware Approximate
Sun 05:36:01 AM 17.6790 -88.3100 330° Northwest 445 512 36,000  Level FlightAware ADS-B
Sun 05:36:38 AM 17.7380 -88.3390 335° Northwest 445 512 36,000  Level FlightAware ADS-B
Sun 05:37:16 AM 17.8210 -88.3770 336° Northwest 446 513 36,000  Level FlightAware ADS-B
Sun 05:37:53 AM 17.8920 -88.4100 336° Northwest 446 513 36,000  Level FlightAware ADS-B
Sun 05:38:23 AM 17.9470 -88.4360 336° Northwest 446 513 36,000  Level FlightAware ADS-B
Sun 05:39:11 AM 18.0310 -88.4760 336° Northwest 445 512 36,000  Level FlightAware ADS-B
Sun 05:39:47 AM 18.0880 -88.5040 335° Northwest 445 512 36,000  Level FlightAware ADS-B
Sun 05:40:25 AM 18.1790 -88.5450 337° Northwest 445 512 36,000  Level FlightAware ADS-B
Sun 05:41:01 AM 18.2430 -88.5750 336° Northwest 445 512 36,000  Level FlightAware ADS-B
Sun 05:41:37 AM 18.3140 -88.6090 336° Northwest 445 512 36,000  Level FlightAware ADS-B
Sun 05:42:13 AM 18.3810 -88.6410 336° Northwest 444 511 36,000  Level FlightAware ADS-B
Sun 05:42:48 AM 18.4400 -88.6840 325° Northwest 446 513 36,000  Level FlightAware ADS-B
Sun 05:43:23 AM 18.4960 -88.7320 321° Northwest 446 513 36,000  Level FlightAware ADS-B
Sun 05:44:05 AM 18.5610 -88.7890 320° Northwest 445 512 36,000  Level FlightAware ADS-B
Sun 05:44:37 AM 18.6140 -88.8350 321° Northwest 443 510 36,000  Level FlightAware ADS-B
Sun 05:45:13 AM 18.6720 -88.8850 321° Northwest 443 510 36,000  Level FlightAware ADS-B
Sun 05:45:49 AM 18.7290 -88.9340 321° Northwest 444 511 36,000  Level FlightAware ADS-B
Sun 05:46:25 AM 18.7860 -88.9840 320° Northwest 443 510 36,000  Level FlightAware ADS-B
Sun 05:46:53 AM 18.8280 -89.0200 321° Northwest 445 512 36,000  Level FlightAware ADS-B
Sun 05:47:35 AM 18.8970 -89.0800 321° Northwest 445 512 36,000  Level FlightAware ADS-B
Sun 05:48:07 AM 18.9480 -89.1240 321° Northwest 445 512 36,000  Level FlightAware ADS-B
Sun 05:48:42 AM 19.0030 -89.1730 320° Northwest 445 512 36,000  Level FlightAware ADS-B
Sun 05:49:16 AM 19.0580 -89.2200 321° Northwest 447 514 36,000  Level FlightAware ADS-B
Sun 05:49:56 AM 19.1210 -89.2750 320° Northwest 448 516 36,000  Level FlightAware ADS-B
Sun 05:50:28 AM 19.1730 -89.3210 320° Northwest 449 517 36,000  Level FlightAware ADS-B
Sun 05:51:04 AM 19.2300 -89.3710 320° Northwest 450 518 36,000  Level FlightAware ADS-B
Sun 05:51:38 AM 19.2850 -89.4190 321° Northwest 450 518 36,000  Level FlightAware ADS-B
Sun 05:52:14 AM 19.3440 -89.4700 321° Northwest 448 516 36,000  Level FlightAware ADS-B
Sun 05:52:47 AM 19.3960 -89.5150 321° Northwest 447 514 36,000  Level FlightAware ADS-B
Sun 05:53:24 AM 19.4550 -89.5680 320° Northwest 446 513 36,000  Level FlightAware ADS-B
Sun 05:54:00 AM 19.5120 -89.6170 321° Northwest 447 514 36,000  Level FlightAware ADS-B
Sun 05:54:32 AM 19.5630 -89.6630 320° Northwest 446 513 36,000  Level FlightAware ADS-B
Sun 05:55:10 AM 19.6240 -89.7160 321° Northwest 445 512 36,000  Level FlightAware ADS-B
Sun 05:55:46 AM 19.6820 -89.7670 320° Northwest 445 512 36,000  Level FlightAware ADS-B
Sun 05:56:22 AM 19.7370 -89.8160 320° Northwest 441 507 36,000  Level FlightAware ADS-B
Sun 05:56:54 AM 19.7880 -89.8600 321° Northwest 438 504 36,000  Level FlightAware ADS-B
Sun 05:57:30 AM 19.8440 -89.9100 320° Northwest 436 502 36,000  Level FlightAware ADS-B
Sun 05:58:06 AM 19.9000 -89.9590 321° Northwest 434 499 36,000  Level FlightAware ADS-B
Sun 05:58:37 AM 19.9470 -90.0010 320° Northwest 432 497 36,000  Level FlightAware ADS-B
Sun 05:59:14 AM 20.0040 -90.0510 321° Northwest 431 496 36,000  Level FlightAware ADS-B
Sun 05:59:50 AM 20.0600 -90.1010 320° Northwest 432 497 36,000  Level FlightAware ADS-B
Sun 06:00:26 AM 20.1150 -90.1490 321° Northwest 432 497 36,000  Level FlightAware ADS-B
Sun 06:00:58 AM 20.1650 -90.1940 320° Northwest 432 497 36,000  Level FlightAware ADS-B
Sun 06:01:34 AM 20.2190 -90.2420 320° Northwest 432 497 36,000  Level FlightAware ADS-B
Sun 06:02:10 AM 20.2750 -90.2920 320° Northwest 432 497 36,000  Level FlightAware ADS-B
Sun 06:02:42 AM 20.3240 -90.3350 321° Northwest 432 497 36,000  Level FlightAware ADS-B
Sun 06:03:18 AM 20.3790 -90.3850 320° Northwest 432 497 36,000  Level FlightAware ADS-B
Sun 06:03:54 AM 20.4340 -90.4340 320° Northwest 432 497 36,000  Level FlightAware ADS-B
Sun 06:04:30 AM 20.4880 -90.4820 320° Northwest 432 497 36,000  Level FlightAware ADS-B
Sun 06:05:06 AM 20.5440 -90.5320 320° Northwest 433 498 36,000  Level FlightAware ADS-B
Sun 06:05:38 AM 20.5930 -90.5760 320° Northwest 435 501 36,000  Level FlightAware ADS-B
Sun 06:06:14 AM 20.6490 -90.6260 320° Northwest 436 502 36,000  Level FlightAware ADS-B
Sun 06:06:50 AM 20.7050 -90.6760 320° Northwest 438 504 36,000 583 Level FlightAware ADS-B
Sun 06:07:26 AM 20.7610 -90.7260 320° Northwest 434 499 36,700 1,151 Climbing FlightAware ADS-B
Sun 06:08:03 AM 20.8170 -90.7760 320° Northwest 431 496 37,400 971 Climbing FlightAware ADS-B
Sun 06:08:34 AM 20.8660 -90.8200 320° Northwest 430 495 37,800 537 Climbing FlightAware ADS-B
Sun 06:09:10 AM 20.9200 -90.8690 320° Northwest 434 499 38,000 176 Climbing FlightAware ADS-B
Sun 06:09:42 AM 20.9690 -90.9130 320° Northwest 435 501 38,000  Level FlightAware ADS-B
Sun 06:10:22 AM 21.0300 -90.9690 319° Northwest 435 501 38,000  Level FlightAware ADS-B
Sun 06:10:54 AM 21.0800 -91.0130 321° Northwest 434 499 38,000  Level FlightAware ADS-B
Sun 06:11:26 AM 21.1330 -91.0530 325° Northwest 435 501 38,000  Level FlightAware ADS-B
Sun 06:12:04 AM 21.2040 -91.0860 337° Northwest 435 501 38,000  Level FlightAware ADS-B
Sun 06:12:32 AM 21.2550 -91.1080 338° Northwest 435 501 38,000  Level FlightAware ADS-B
Sun 06:13:08 AM 21.3220 -91.1370 338° Northwest 436 502 38,000  Level FlightAware ADS-B
Sun 06:13:44 AM 21.3890 -91.1650 339° North 437 503 38,000  Level FlightAware ADS-B
Sun 06:14:17 AM 21.4520 -91.1920 338° Northwest 438 504 38,000  Level FlightAware ADS-B
Sun 06:14:52 AM 21.5190 -91.2210 338° Northwest 439 505 38,000  Level FlightAware ADS-B
Sun 06:15:35 AM 21.5900 -91.2530 337° Northwest 440 506 38,000  Level FlightAware ADS-B
Sun 06:16:11 AM 21.6480 -91.2790 337° Northwest 440 506 38,000  Level FlightAware ADS-B
Sun 06:16:48 AM 21.7070 -91.3060 337° Northwest 440 506 38,000  Level FlightAware ADS-B
Sun 06:17:22 AM 21.7610 -91.3310 337° Northwest 440 506 38,000  Level FlightAware ADS-B
Sun 06:17:58 AM 21.8180 -91.3570 337° Northwest 440 506 38,000  Level FlightAware ADS-B
Sun 06:18:34 AM 21.8750 -91.3830 337° Northwest 440 506 38,000  Level FlightAware ADS-B
Sun 06:19:11 AM 21.9340 -91.4100 337° Northwest 440 506 38,000  Level FlightAware ADS-B
Sun 06:19:48 AM 21.9930 -91.4370 337° Northwest 440 506 38,000  Level FlightAware ADS-B
Sun 06:20:24 AM 22.0510 -91.4630 337° Northwest 440 506 38,000  Level FlightAware ADS-B
Sun 06:21:00 AM 22.1080 -91.4900 336° Northwest 440 506 38,000  Level FlightAware ADS-B
Sun 06:21:37 AM 22.1670 -91.5170 337° Northwest 440 506 38,000  Level FlightAware ADS-B
Sun 06:22:14 AM 22.2260 -91.5440 337° Northwest 440 506 38,000  Level FlightAware ADS-B
Sun 06:22:50 AM 22.2830 -91.5700 337° Northwest 440 506 38,000  Level FlightAware ADS-B
Sun 06:23:28 AM 22.3440 -91.5980 337° Northwest 440 506 38,000  Level FlightAware ADS-B
Sun 06:24:04 AM 22.4010 -91.6240 337° Northwest 440 506 38,000  Level FlightAware ADS-B
Sun 06:24:40 AM 22.4580 -91.6500 337° Northwest 440 506 38,000  Level FlightAware ADS-B
Sun 06:27:00 AM 22.7225 -91.7402 343° North  Level FlightAware Approximate
Sun 06:28:00 AM 22.8357 -91.7827 338° Northwest  Level FlightAware Approximate
Sun 06:29:00 AM 22.9455 -91.8320 338° Northwest  Level FlightAware Approximate
Sun 06:30:00 AM 23.0552 -91.8814 337° Northwest  Level FlightAware Approximate
Sun 06:31:00 AM 23.1651 -91.9308 338° Northwest  Level FlightAware Approximate
Sun 06:32:00 AM 23.2750 -91.9798 338° Northwest  Level FlightAware Approximate
Sun 06:33:00 AM 23.3850 -92.0289 338° Northwest  Level FlightAware Approximate
Sun 06:34:00 AM 23.4949 -92.0781 338° Northwest  Level FlightAware Approximate
Sun 06:35:00 AM 23.6049 -92.1273 338° Northwest  Level FlightAware Approximate
Sun 06:36:00 AM 23.7148 -92.1767 338° Northwest  Level FlightAware Approximate
Sun 06:37:00 AM 23.8246 -92.2262 338° Northwest  Level FlightAware Approximate
Sun 06:38:00 AM 23.9345 -92.2759 338° Northwest  Level FlightAware Approximate
Sun 06:39:00 AM 24.0443 -92.3257 338° Northwest  Level FlightAware Approximate
Sun 06:40:00 AM 24.1540 -92.3756 337° Northwest  Level FlightAware Approximate
Sun 06:41:00 AM 24.2638 -92.4255 337° Northwest  Level FlightAware Approximate
Sun 06:42:00 AM 24.3735 -92.4755 337° Northwest  Level FlightAware Approximate
Sun 06:43:00 AM 24.4833 -92.5257 337° Northwest  Level FlightAware Approximate
Sun 06:44:00 AM 24.5887 -92.5858 332° Northwest  Level FlightAware Approximate
Sun 06:45:00 AM 24.6933 -92.6479 332° Northwest  Level FlightAware Approximate
Sun 06:46:00 AM 24.8005 -92.7063 334° Northwest  Level FlightAware Approximate
Sun 06:47:00 AM 24.9062 -92.7680 331° Northwest  Level FlightAware Approximate
Sun 06:48:00 AM 25.0106 -92.8326 331° Northwest  Level FlightAware Approximate
Sun 06:49:00 AM 25.1149 -92.8972 331° Northwest  Level FlightAware Approximate
Sun 06:50:00 AM 25.2197 -92.9609 333° Northwest  Level FlightAware Approximate
Sun 06:51:00 AM 25.3266 -93.0203 333° Northwest  Level FlightAware Approximate
Sun 06:52:00 AM 25.4320 -93.0828 331° Northwest  Level FlightAware Approximate
Sun 06:53:00 AM 25.5370 -93.1463 331° Northwest  Level FlightAware Approximate
Sun 06:54:00 AM 25.6420 -93.2099 331° Northwest  Level FlightAware Approximate
Sun 06:55:00 AM 25.7470 -93.2736 331° Northwest  Level FlightAware Approximate
Sun 06:55:07 AM 26.1205 -93.5097 331° Northwest 455 524 38,000  Level FlightAware ADS-B
Sun 06:55:41 AM 26.1837 -93.5484 331° Northwest 455 524 38,000  Level FlightAware ADS-B
Sun 06:58:00 AM 26.4266 -93.6971 330° Northwest  Level FlightAware Approximate
Sun 06:58:14 AM 26.4661 -93.7219 330° Northwest 456 525 38,000  Level FlightAware ADS-B
Sun 06:58:43 AM 26.5197 -93.7541 332° Northwest 458 527 38,000  Level FlightAware ADS-B
Sun 06:59:07 AM 26.5662 -93.7740 339° North 462 532 38,000  Level FlightAware ADS-B
Sun 07:00:19 AM 26.7184 -93.8091 348° North 463 533 38,000  Level FlightAware ADS-B
Sun 07:00:49 AM 26.7821 -93.8214 350° North 463 533 38,000  Level FlightAware ADS-B
Sun 07:01:20 AM 26.8466 -93.8329 351° North 463 533 38,000  Level FlightAware ADS-B
Sun 07:01:50 AM 26.9105 -93.8443 351° North 462 532 38,000  Level FlightAware ADS-B
Sun 07:02:20 AM 26.9749 -93.8561 351° North 462 532 38,000  Level FlightAware ADS-B
Sun 07:03:01 AM 27.0614 -93.8722 351° North 461 531 38,000  Level FlightAware ADS-B
Sun 07:03:32 AM 27.1253 -93.8842 351° North 462 532 38,000  Level FlightAware ADS-B
Sun 07:04:30 AM 27.2488 -93.9075 350° North 463 533 38,000  Level FlightAware ADS-B
Sun 07:05:00 AM 27.3133 -93.9196 351° North 464 534 38,000  Level FlightAware ADS-B
Sun 07:05:46 AM 27.4109 -93.9379 351° North 464 534 38,000  Level FlightAware ADS-B
Sun 07:06:17 AM 27.4758 -93.9501 351° North 464 534 38,000  Level FlightAware ADS-B
Sun 07:06:48 AM 27.5409 -93.9624 350° North 463 533 38,000  Level FlightAware ADS-B
Sun 07:07:18 AM 27.6057 -93.9746 351° North 463 533 38,000  Level FlightAware ADS-B
Sun 07:07:49 AM 27.6713 -93.9870 350° North 462 532 38,000  Level FlightAware ADS-B
Sun 07:08:20 AM 27.7351 -93.9990 351° North 462 532 38,000  Level FlightAware ADS-B
Sun 07:09:00 AM 27.8209 -94.0152 351° North 462 532 38,000  Level FlightAware ADS-B
Sun 07:09:30 AM 27.8844 -94.0272 351° North 462 532 38,000  Level FlightAware ADS-B
Sun 07:10:01 AM 27.9485 -94.0394 350° North 461 531 38,000  Level FlightAware ADS-B
Sun 07:10:33 AM 28.0166 -94.0523 351° North 460 529 38,000  Level FlightAware ADS-B
Sun 07:11:10 AM 28.0945 -94.0671 350° North 459 528 38,000  Level FlightAware ADS-B
Sun 07:11:42 AM 28.1626 -94.0801 350° North 458 527 38,000  Level FlightAware ADS-B
Sun 07:12:13 AM 28.2275 -94.0925 350° North 458 527 38,000  Level FlightAware ADS-B
Sun 07:12:44 AM 28.2911 -94.1046 350° North 459 528 38,000 -492 Level FlightAware ADS-B
Sun 07:13:14 AM 28.3552 -94.1169 350° North 454 522 37,500 -1,672 Descending FlightAware ADS-B
Sun 07:13:45 AM 28.4185 -94.1290 350° North 457 526 36,300 -2,656 Descending FlightAware ADS-B
Sun 07:14:15 AM 28.4820 -94.1411 350° North 464 534 34,800 -3,000 Descending FlightAware ADS-B
Sun 07:14:45 AM 28.5472 -94.1536 350° North 470 541 33,300 -3,049 Descending FlightAware ADS-B
Sun 07:15:16 AM 28.6120 -94.1661 350° North 472 543 31,700 -3,148 Descending FlightAware ADS-B
Sun 07:15:46 AM 28.6778 -94.1783 351° North 466 536 30,100 -2,900 Descending FlightAware ADS-B
Sun 07:16:16 AM 28.7420 -94.1896 351° North 456 525 28,800 -2,500 Descending FlightAware ADS-B
Sun 07:16:58 AM 28.8280 -94.2074 350° North 450 518 27,100 -2,466 Descending FlightAware ADS-B
Sun 07:17:29 AM 28.8892 -94.2198 350° North 440 506 25,800 -525 Descending FlightAware ADS-B
Sun 07:18:18 AM 28.9680 -94.2380 349° North 442 509 26,400 -2,325 Climbing FlightAware ADS-B
Sun 07:18:49 AM 29.0460 -94.2500 352° North 419 482 22,700 -4,721 Descending FlightAware ADS-B
Sun 07:19:19 AM 29.1020 -94.2600 351° North 411 473 21,600 -957 Descending FlightAware ADS-B
Sun 07:19:58 AM 29.1640 -94.2730 350° North 411 473 21,600 -2,170 Level FlightAware ADS-B
Sun 07:20:53 AM 29.2748 -94.2944 350° North 387 445 18,200 -3,500 Descending FlightAware ADS-B
Sun 07:20:58 AM 29.2842 -94.2973 345° North 383 441 18,100 -1,091 Descending FlightAware ADS-B
Sun 07:21:04 AM 29.2934 -94.3011 340° North 380 437 18,000 -1,385 Descending FlightAware ADS-B
Sun 07:21:11 AM 29.3053 -94.3074 335° Northwest 379 436 17,800 -1,125 Descending FlightAware ADS-B
Sun 07:21:20 AM 29.3179 -94.3158 330° Northwest 379 436 17,700 -706 Descending FlightAware ADS-B
Sun 07:21:28 AM 29.3292 -94.3253 324° Northwest 379 436 17,600 -947 Descending FlightAware ADS-B
Sun 07:21:58 AM 29.3685 -94.3658 318° Northwest 379 436 17,100 -1,000 Descending FlightAware ADS-B
Sun 07:22:28 AM 29.4078 -94.4062 318° Northwest 375 432 16,600 -1,500 Descending FlightAware ADS-B
Sun 07:22:58 AM 29.4469 -94.4463 318° Northwest 372 428 15,600 -2,000 Descending FlightAware ADS-B
Sun 07:23:28 AM 29.4853 -94.4859 318° Northwest 368 423 14,600 -2,136 Descending FlightAware ADS-B
Sun 07:23:57 AM 29.5210 -94.5227 318° Northwest 365 420 13,500 -2,237 Descending FlightAware ADS-B
Sun 07:24:27 AM 29.5590 -94.5620 318° Northwest 364 419 12,400 -2,200 Descending FlightAware ADS-B
Sun 07:24:57 AM 29.5961 -94.6006 318° Northwest 360 414 11,300 -2,000 Descending FlightAware ADS-B
Sun 07:25:27 AM 29.6336 -94.6393 318° Northwest 348 400 10,400 -1,180 Descending FlightAware ADS-B
Sun 07:25:58 AM 29.6685 -94.6754 318° Northwest 323 372 10,100 -522 Descending FlightAware ADS-B
Sun 07:26:13 AM 29.6847 -94.6921 318° Northwest 309 356 10,000 -933 Descending FlightAware ADS-B
Sun 07:26:43 AM 29.7160 -94.7245 318° Northwest 297 342 9,400 -1,174 Descending FlightAware ADS-B
Sun 07:26:59 AM 29.7320 -94.7411 318° Northwest 293 337 9,100 -1,355 Descending FlightAware ADS-B
Sun 07:27:14 AM 29.7475 -94.7573 318° Northwest 290 334 8,700 -1,400 Descending FlightAware ADS-B
Sun 07:27:29 AM 29.7626 -94.7730 318° Northwest 287 330 8,400 -1,161 Descending FlightAware ADS-B
Sun 07:27:45 AM 29.7779 -94.7888 318° Northwest 285 328 8,100 -1,355 Descending FlightAware ADS-B
Sun 07:28:00 AM 29.7924 -94.8040 318° Northwest 282 325 7,700 -1,600 Descending FlightAware ADS-B
Sun 07:28:15 AM 29.8070 -94.8192 318° Northwest 282 325 7,300 -1,600 Descending FlightAware ADS-B
Sun 07:28:30 AM 29.8217 -94.8344 318° Northwest 283 326 6,900 -1,400 Descending FlightAware ADS-B
Sun 07:28:45 AM 29.8366 -94.8498 318° Northwest 280 322 6,600 -1,200 Descending FlightAware ADS-B
Sun 07:29:00 AM 29.8509 -94.8647 318° Northwest 278 320 6,300 -1,355 Descending FlightAware ADS-B
Sun 07:29:16 AM 29.8654 -94.8798 318° Northwest 277 319 5,900 -1,355 Descending FlightAware ADS-B
Sun 07:29:31 AM 29.8796 -94.8947 318° Northwest 273 314 5,600 -1,000 Descending FlightAware ADS-B
Sun 07:29:46 AM 29.8937 -94.9094 318° Northwest 266 306 5,400 -1,000 Descending FlightAware ADS-B
Sun 07:30:01 AM 29.9073 -94.9237 318° Northwest 261 300 5,100 -1,161 Descending FlightAware ADS-B
Sun 07:30:17 AM 29.9210 -94.9380 318° Northwest 257 296 4,800 -1,161 Descending FlightAware ADS-B
Sun 07:30:32 AM 29.9346 -94.9520 318° Northwest 253 291 4,500 -1,355 Descending FlightAware ADS-B
Sun 07:30:48 AM 29.9481 -94.9662 318° Northwest 255 293 4,100 -1,459 Descending FlightAware ADS-B
Sun 07:31:09 AM 29.9673 -94.9867 316° Northwest 260 299 3,600 -1,440 Descending FlightAware ADS-B
Sun 07:31:13 AM 29.9700 -94.9901 313° West 261 300 3,500 -1,000 Descending FlightAware ADS-B
Sun 07:31:21 AM 29.9748 -94.9994 296° West 265 305 3,400 -545 Descending FlightAware ADS-B
Sun 07:31:24 AM 29.9762 -95.0038 290° West 267 307 3,400 -1,000 Level FlightAware ADS-B
Sun 07:31:27 AM 29.9771 -95.0084 283° West 267 307 3,300 -1,200 Descending FlightAware ADS-B
Sun 07:31:34 AM 29.9777 -95.0185 272° West 268 308 3,200 -818 Descending FlightAware ADS-B
Sun 07:31:49 AM 29.9775 -95.0397 269° West 262 302 3,000 -724 Descending FlightAware ADS-B
Sun 07:32:32 AM 29.9775 -95.0968 270° West 243 280 2,500 -706 Descending FlightAware ADS-B
Sun 07:32:57 AM 29.9775 -95.1291 270° West 233 268 2,200 -585 Descending FlightAware ADS-B
Sun 07:33:13 AM 29.9775 -95.1480 270° West 230 265 2,100 -429 Descending FlightAware ADS-B
Sun 07:33:39 AM 29.9775 -95.1787 270° West 214 246 1,900 -353 Descending FlightAware ADS-B
Sun 07:33:47 AM 29.9775 -95.1880 270° West 205 236 1,900 -750 Level FlightAware ADS-B
Sun 07:34:03 AM 29.9777 -95.2048 271° West 193 222 1,600 -909 Descending FlightAware ADS-B
Sun 07:34:20 AM 29.9776 -95.2222 270° West 182 209 1,400 -882 Descending FlightAware ADS-B
Sun 07:34:37 AM 29.9776 -95.2375 270° West 171 197 1,100 -960 Descending FlightAware ADS-B
Sun 07:34:45 AM 29.9776 -95.2455 270° West 169 194 1,000 -818 Descending FlightAware ADS-B
Sun 07:34:59 AM 29.9777 -95.2573 271° West 166 191 800 -923 Descending FlightAware ADS-B
Sun 07:35:11 AM 29.9777 -95.2686 270° West 166 191 600 -923 Descending FlightAware ADS-B
Sun 07:35:25 AM 29.9776 -95.2808 269° West 164 189 400 -800 Descending FlightAware ADS-B
Sun 07:35:41 AM 29.9776 -95.2947 270° West 162 186 200 -750 Descending FlightAware ADS-B
Sun 07:35:49 AM 29.9776 -95.3016 270° West 162 186 100  Descending FlightAware ADS-B
Sun 07:36:28 AM 29.9786 -95.3256 270° West 181 208 200 154 Climbing Houston Center
Sun 07:38:00 AM 29.9833 -95.3333 311° West  Level FlightAware Approximate

Login

Don't have an account? Register now (free) for customized features, flight alerts, and more!